sensor_id;sensor_type;location;lat;lon;timestamp;pressure;altitude;pressure_sealevel;temperature;humidity
49063;BME280;34876;51.464;-0.150;2023-07-24T00:00:21;100289.83;;;23.27;48.20
49063;BME280;34876;51.464;-0.150;2023-07-24T00:03:38;100291.23;;;23.27;48.18
49063;BME280;34876;51.464;-0.150;2023-07-24T00:06:08;100291.64;;;23.28;48.14
49063;BME280;34876;51.464;-0.150;2023-07-24T00:08:37;100292.46;;;23.17;48.49
49063;BME280;34876;51.464;-0.150;2023-07-24T00:11:07;100290.99;;;22.84;49.36
49063;BME280;34876;51.464;-0.150;2023-07-24T00:13:36;100288.95;;;22.54;50.26
49063;BME280;34876;51.464;-0.150;2023-07-24T00:16:07;100290.83;;;22.60;50.56
49063;BME280;34876;51.464;-0.150;2023-07-24T00:18:36;100295.39;;;22.27;51.15
49063;BME280;34876;51.464;-0.150;2023-07-24T00:21:06;100297.39;;;22.24;51.46
49063;BME280;34876;51.464;-0.150;2023-07-24T00:23:36;100297.43;;;22.51;50.44
49063;BME280;34876;51.464;-0.150;2023-07-24T00:26:07;100292.29;;;23.01;49.01
49063;BME280;34876;51.464;-0.150;2023-07-24T00:28:36;100289.76;;;23.12;48.69
49063;BME280;34876;51.464;-0.150;2023-07-24T00:31:05;100291.29;;;23.16;48.58
49063;BME280;34876;51.464;-0.150;2023-07-24T00:33:35;100286.26;;;23.20;48.45
49063;BME280;34876;51.464;-0.150;2023-07-24T00:36:05;100285.61;;;23.20;48.45
49063;BME280;34876;51.464;-0.150;2023-07-24T00:38:33;100284.56;;;23.21;48.42
49063;BME280;34876;51.464;-0.150;2023-07-24T00:41:03;100281.59;;;23.22;48.38
49063;BME280;34876;51.464;-0.150;2023-07-24T00:43:32;100278.79;;;23.26;48.28
49063;BME280;34876;51.464;-0.150;2023-07-24T00:46:03;100282.04;;;23.24;48.31
49063;BME280;34876;51.464;-0.150;2023-07-24T00:48:32;100278.99;;;23.25;48.28
49063;BME280;34876;51.464;-0.150;2023-07-24T00:51:02;100272.55;;;23.27;48.25
49063;BME280;34876;51.464;-0.150;2023-07-24T00:53:31;100269.70;;;23.25;48.28
49063;BME280;34876;51.464;-0.150;2023-07-24T00:56:01;100268.28;;;23.26;48.25
49063;BME280;34876;51.464;-0.150;2023-07-24T00:58:31;100264.58;;;23.28;48.24
49063;BME280;34876;51.464;-0.150;2023-07-24T01:01:01;100266.41;;;23.25;48.28
49063;BME280;34876;51.464;-0.150;2023-07-24T01:03:34;100265.86;;;23.28;48.20
49063;BME280;34876;51.464;-0.150;2023-07-24T01:06:04;100267.17;;;23.27;48.23
49063;BME280;34876;51.464;-0.150;2023-07-24T01:08:33;100267.17;;;23.28;48.25
49063;BME280;34876;51.464;-0.150;2023-07-24T01:11:08;100265.42;;;23.28;48.23
49063;BME280;34876;51.464;-0.150;2023-07-24T01:13:43;100259.33;;;23.28;48.23
49063;BME280;34876;51.464;-0.150;2023-07-24T01:16:18;100260.48;;;23.28;48.22
49063;BME280;34876;51.464;-0.150;2023-07-24T01:18:51;100259.64;;;23.29;48.20
49063;BME280;34876;51.464;-0.150;2023-07-24T01:21:33;100257.14;;;23.28;48.23
49063;BME280;34876;51.464;-0.150;2023-07-24T01:24:19;100255.66;;;23.28;48.25
49063;BME280;34876;51.464;-0.150;2023-07-24T01:26:53;100255.10;;;23.30;48.21
49063;BME280;34876;51.464;-0.150;2023-07-24T01:29:23;100254.06;;;23.31;48.18
49063;BME280;34876;51.464;-0.150;2023-07-24T01:31:52;100254.43;;;23.28;48.24
49063;BME280;34876;51.464;-0.150;2023-07-24T01:34:21;100252.94;;;23.29;48.21
49063;BME280;34876;51.464;-0.150;2023-07-24T01:36:51;100254.13;;;23.30;48.19
49063;BME280;34876;51.464;-0.150;2023-07-24T01:39:21;100257.17;;;23.31;48.15
49063;BME280;34876;51.464;-0.150;2023-07-24T01:41:50;100254.45;;;23.33;48.12
49063;BME280;34876;51.464;-0.150;2023-07-24T01:44:19;100252.02;;;23.33;48.12
49063;BME280;34876;51.464;-0.150;2023-07-24T01:46:48;100247.79;;;23.32;48.14
49063;BME280;34876;51.464;-0.150;2023-07-24T01:49:17;100245.18;;;23.33;48.13
49063;BME280;34876;51.464;-0.150;2023-07-24T01:51:46;100242.68;;;23.32;48.13
49063;BME280;34876;51.464;-0.150;2023-07-24T01:54:15;100241.36;;;23.31;48.18
49063;BME280;34876;51.464;-0.150;2023-07-24T01:56:45;100239.09;;;23.34;48.12
49063;BME280;34876;51.464;-0.150;2023-07-24T01:59:15;100235.39;;;23.31;48.18
49063;BME280;34876;51.464;-0.150;2023-07-24T02:01:45;100232.65;;;23.32;48.17
49063;BME280;34876;51.464;-0.150;2023-07-24T02:04:14;100233.59;;;23.32;48.17
49063;BME280;34876;51.464;-0.150;2023-07-24T02:06:43;100232.43;;;23.32;48.17
49063;BME280;34876;51.464;-0.150;2023-07-24T02:09:12;100231.73;;;23.31;48.19
49063;BME280;34876;51.464;-0.150;2023-07-24T02:11:42;100231.74;;;23.32;48.17
49063;BME280;34876;51.464;-0.150;2023-07-24T02:14:13;100234.59;;;23.33;48.14
49063;BME280;34876;51.464;-0.150;2023-07-24T02:16:42;100235.17;;;23.33;48.14
49063;BME280;34876;51.464;-0.150;2023-07-24T02:19:10;100234.45;;;23.34;48.13
49063;BME280;34876;51.464;-0.150;2023-07-24T02:21:39;100231.50;;;23.33;48.16
49063;BME280;34876;51.464;-0.150;2023-07-24T02:24:08;100227.45;;;23.32;48.22
49063;BME280;34876;51.464;-0.150;2023-07-24T02:26:37;100228.71;;;23.30;48.31
49063;BME280;34876;51.464;-0.150;2023-07-24T02:29:06;100229.11;;;23.29;48.33
49063;BME280;34876;51.464;-0.150;2023-07-24T02:31:36;100226.87;;;23.29;48.37
49063;BME280;34876;51.464;-0.150;2023-07-24T02:34:05;100226.93;;;23.27;48.44
49063;BME280;34876;51.464;-0.150;2023-07-24T02:36:34;100227.20;;;23.29;48.39
49063;BME280;34876;51.464;-0.150;2023-07-24T02:39:02;100227.81;;;23.26;48.46
49063;BME280;34876;51.464;-0.150;2023-07-24T02:41:32;100223.87;;;23.28;48.38
49063;BME280;34876;51.464;-0.150;2023-07-24T02:44:02;100222.07;;;23.27;48.42
49063;BME280;34876;51.464;-0.150;2023-07-24T02:46:31;100219.33;;;23.30;48.38
49063;BME280;34876;51.464;-0.150;2023-07-24T02:49:01;100215.60;;;23.27;48.43
49063;BME280;34876;51.464;-0.150;2023-07-24T02:51:30;100214.26;;;23.28;48.44
49063;BME280;34876;51.464;-0.150;2023-07-24T02:53:59;100213.10;;;23.29;48.40
49063;BME280;34876;51.464;-0.150;2023-07-24T02:56:28;100216.44;;;23.28;48.40
49063;BME280;34876;51.464;-0.150;2023-07-24T02:58:57;100217.41;;;23.28;48.43
49063;BME280;34876;51.464;-0.150;2023-07-24T03:01:26;100216.66;;;23.27;48.47
49063;BME280;34876;51.464;-0.150;2023-07-24T03:03:55;100217.41;;;23.25;48.49
49063;BME280;34876;51.464;-0.150;2023-07-24T03:06:25;100218.84;;;23.26;48.47
49063;BME280;34876;51.464;-0.150;2023-07-24T03:08:53;100215.65;;;23.29;48.35
49063;BME280;34876;51.464;-0.150;2023-07-24T03:11:22;100215.40;;;23.31;48.29
49063;BME280;34876;51.464;-0.150;2023-07-24T03:13:51;100213.05;;;23.33;48.22
49063;BME280;34876;51.464;-0.150;2023-07-24T03:16:21;100212.09;;;23.33;48.20
49063;BME280;34876;51.464;-0.150;2023-07-24T03:18:50;100210.90;;;23.33;48.19
49063;BME280;34876;51.464;-0.150;2023-07-24T03:21:19;100207.75;;;23.33;48.17
49063;BME280;34876;51.464;-0.150;2023-07-24T03:23:49;100204.97;;;23.34;48.13
49063;BME280;34876;51.464;-0.150;2023-07-24T03:26:18;100207.63;;;23.33;48.17
49063;BME280;34876;51.464;-0.150;2023-07-24T03:28:47;100212.36;;;23.33;48.17
49063;BME280;34876;51.464;-0.150;2023-07-24T03:31:16;100213.64;;;23.32;48.17
49063;BME280;34876;51.464;-0.150;2023-07-24T03:33:44;100214.13;;;23.32;48.17
49063;BME280;34876;51.464;-0.150;2023-07-24T03:36:13;100212.85;;;23.32;48.15
49063;BME280;34876;51.464;-0.150;2023-07-24T03:38:42;100211.80;;;23.31;48.19
49063;BME280;34876;51.464;-0.150;2023-07-24T03:41:11;100210.55;;;23.27;48.27
49063;BME280;34876;51.464;-0.150;2023-07-24T03:43:40;100208.36;;;23.30;48.21
49063;BME280;34876;51.464;-0.150;2023-07-24T03:46:09;100204.85;;;23.30;48.22
49063;BME280;34876;51.464;-0.150;2023-07-24T03:48:37;100202.28;;;23.30;48.18
49063;BME280;34876;51.464;-0.150;2023-07-24T03:51:06;100205.91;;;23.30;48.20
49063;BME280;34876;51.464;-0.150;2023-07-24T03:53:35;100209.93;;;23.31;48.17
49063;BME280;34876;51.464;-0.150;2023-07-24T03:56:04;100208.82;;;23.31;48.14
49063;BME280;34876;51.464;-0.150;2023-07-24T03:58:33;100210.47;;;23.30;48.17
49063;BME280;34876;51.464;-0.150;2023-07-24T04:01:01;100212.77;;;23.31;48.16
49063;BME280;34876;51.464;-0.150;2023-07-24T04:03:31;100215.45;;;23.31;48.13
49063;BME280;34876;51.464;-0.150;2023-07-24T04:06:01;100219.34;;;23.31;48.13
49063;BME280;34876;51.464;-0.150;2023-07-24T04:08:30;100218.49;;;23.29;48.19
49063;BME280;34876;51.464;-0.150;2023-07-24T04:10:59;100221.25;;;23.26;48.28
49063;BME280;34876;51.464;-0.150;2023-07-24T04:13:28;100220.74;;;23.30;48.15
49063;BME280;34876;51.464;-0.150;2023-07-24T04:15:57;100222.37;;;23.29;48.17
49063;BME280;34876;51.464;-0.150;2023-07-24T04:18:26;100221.55;;;23.29;48.17
49063;BME280;34876;51.464;-0.150;2023-07-24T04:20:56;100219.32;;;23.29;48.15
49063;BME280;34876;51.464;-0.150;2023-07-24T04:23:25;100224.46;;;23.29;48.15
49063;BME280;34876;51.464;-0.150;2023-07-24T04:25:54;100226.45;;;23.29;48.17
49063;BME280;34876;51.464;-0.150;2023-07-24T04:28:24;100229.02;;;23.30;48.11
49063;BME280;34876;51.464;-0.150;2023-07-24T04:30:52;100229.84;;;23.28;48.16
49063;BME280;34876;51.464;-0.150;2023-07-24T04:33:22;100226.98;;;23.29;48.14
49063;BME280;34876;51.464;-0.150;2023-07-24T04:35:51;100229.02;;;23.27;48.18
49063;BME280;34876;51.464;-0.150;2023-07-24T04:38:19;100229.64;;;23.27;48.16
49063;BME280;34876;51.464;-0.150;2023-07-24T04:40:48;100229.71;;;23.28;48.12
49063;BME280;34876;51.464;-0.150;2023-07-24T04:43:17;100230.03;;;23.27;48.13
49063;BME280;34876;51.464;-0.150;2023-07-24T04:45:47;100231.23;;;23.26;48.16
49063;BME280;34876;51.464;-0.150;2023-07-24T04:48:16;100229.35;;;23.27;48.12
49063;BME280;34876;51.464;-0.150;2023-07-24T04:50:45;100227.76;;;23.27;48.10
49063;BME280;34876;51.464;-0.150;2023-07-24T04:53:14;100229.65;;;23.28;48.10
49063;BME280;34876;51.464;-0.150;2023-07-24T04:55:43;100228.79;;;23.27;48.10
49063;BME280;34876;51.464;-0.150;2023-07-24T04:58:14;100230.90;;;23.26;48.14
49063;BME280;34876;51.464;-0.150;2023-07-24T05:00:43;100234.29;;;23.26;48.12
49063;BME280;34876;51.464;-0.150;2023-07-24T05:03:11;100235.69;;;23.26;48.13
49063;BME280;34876;51.464;-0.150;2023-07-24T05:05:41;100234.51;;;23.24;48.16
49063;BME280;34876;51.464;-0.150;2023-07-24T05:08:10;100235.16;;;23.24;48.18
49063;BME280;34876;51.464;-0.150;2023-07-24T05:10:39;100238.37;;;23.25;48.13
49063;BME280;34876;51.464;-0.150;2023-07-24T05:13:08;100242.32;;;23.25;48.12
49063;BME280;34876;51.464;-0.150;2023-07-24T05:15:37;100243.25;;;23.26;48.10
49063;BME280;34876;51.464;-0.150;2023-07-24T05:18:06;100239.44;;;23.25;48.08
49063;BME280;34876;51.464;-0.150;2023-07-24T05:20:35;100239.69;;;23.23;48.15
49063;BME280;34876;51.464;-0.150;2023-07-24T05:23:03;100238.82;;;23.25;48.09
49063;BME280;34876;51.464;-0.150;2023-07-24T05:25:33;100241.19;;;23.24;48.11
49063;BME280;34876;51.464;-0.150;2023-07-24T05:28:02;100240.24;;;23.23;48.13
49063;BME280;34876;51.464;-0.150;2023-07-24T05:30:30;100239.21;;;23.25;48.07
49063;BME280;34876;51.464;-0.150;2023-07-24T05:32:59;100239.15;;;23.25;48.03
49063;BME280;34876;51.464;-0.150;2023-07-24T05:35:28;100243.18;;;23.24;48.09
49063;BME280;34876;51.464;-0.150;2023-07-24T05:37:57;100241.35;;;23.25;48.06
49063;BME280;34876;51.464;-0.150;2023-07-24T05:40:26;100242.76;;;23.25;48.03
49063;BME280;34876;51.464;-0.150;2023-07-24T05:42:55;100242.77;;;23.24;48.07
49063;BME280;34876;51.464;-0.150;2023-07-24T05:45:24;100246.65;;;23.25;48.01
49063;BME280;34876;51.464;-0.150;2023-07-24T05:47:53;100250.30;;;23.25;48.02
49063;BME280;34876;51.464;-0.150;2023-07-24T05:50:22;100250.71;;;23.25;48.02
49063;BME280;34876;51.464;-0.150;2023-07-24T05:52:50;100254.17;;;23.25;48.03
49063;BME280;34876;51.464;-0.150;2023-07-24T05:55:20;100249.99;;;23.25;48.01
49063;BME280;34876;51.464;-0.150;2023-07-24T05:57:49;100248.40;;;23.25;47.99
49063;BME280;34876;51.464;-0.150;2023-07-24T06:00:19;100249.44;;;23.26;47.99
49063;BME280;34876;51.464;-0.150;2023-07-24T06:02:48;100251.83;;;23.25;47.99
49063;BME280;34876;51.464;-0.150;2023-07-24T06:05:17;100251.48;;;23.26;47.98
49063;BME280;34876;51.464;-0.150;2023-07-24T06:07:51;100250.10;;;23.27;47.94
49063;BME280;34876;51.464;-0.150;2023-07-24T06:10:20;100248.74;;;23.25;47.97
49063;BME280;34876;51.464;-0.150;2023-07-24T06:12:54;100248.42;;;23.25;47.99
49063;BME280;34876;51.464;-0.150;2023-07-24T06:15:23;100251.61;;;23.24;48.01
49063;BME280;34876;51.464;-0.150;2023-07-24T06:17:52;100254.81;;;23.24;48.00
49063;BME280;34876;51.464;-0.150;2023-07-24T06:20:21;100254.20;;;23.24;47.98
49063;BME280;34876;51.464;-0.150;2023-07-24T06:22:50;100259.66;;;23.23;48.02
49063;BME280;34876;51.464;-0.150;2023-07-24T06:25:19;100260.69;;;23.23;48.01
49063;BME280;34876;51.464;-0.150;2023-07-24T06:27:48;100260.53;;;23.25;47.97
49063;BME280;34876;51.464;-0.150;2023-07-24T06:30:17;100258.78;;;23.23;48.02
49063;BME280;34876;51.464;-0.150;2023-07-24T06:32:46;100257.96;;;23.22;48.02
49063;BME280;34876;51.464;-0.150;2023-07-24T06:35:16;100258.46;;;23.23;48.00
49063;BME280;34876;51.464;-0.150;2023-07-24T06:37:45;100262.14;;;23.22;48.02
49063;BME280;34876;51.464;-0.150;2023-07-24T06:40:14;100267.14;;;23.23;48.00
49063;BME280;34876;51.464;-0.150;2023-07-24T06:42:44;100266.49;;;23.24;47.98
49063;BME280;34876;51.464;-0.150;2023-07-24T06:45:13;100268.34;;;23.24;47.96
49063;BME280;34876;51.464;-0.150;2023-07-24T06:47:43;100271.61;;;23.24;47.98
49063;BME280;34876;51.464;-0.150;2023-07-24T06:50:12;100273.02;;;23.23;48.01
49063;BME280;34876;51.464;-0.150;2023-07-24T06:52:42;100274.87;;;23.23;47.98
49063;BME280;34876;51.464;-0.150;2023-07-24T06:55:12;100272.49;;;23.23;47.99
49063;BME280;34876;51.464;-0.150;2023-07-24T06:57:42;100274.67;;;23.22;48.02
49063;BME280;34876;51.464;-0.150;2023-07-24T07:00:15;100275.71;;;23.22;48.02
49063;BME280;34876;51.464;-0.150;2023-07-24T07:02:45;100273.81;;;23.22;48.00
49063;BME280;34876;51.464;-0.150;2023-07-24T07:05:14;100274.63;;;23.22;48.02
49063;BME280;34876;51.464;-0.150;2023-07-24T07:07:44;100275.88;;;23.23;47.97
49063;BME280;34876;51.464;-0.150;2023-07-24T07:10:14;100276.53;;;23.22;47.97
49063;BME280;34876;51.464;-0.150;2023-07-24T07:12:42;100279.74;;;23.23;47.96
49063;BME280;34876;51.464;-0.150;2023-07-24T07:15:12;100283.34;;;23.24;47.93
49063;BME280;34876;51.464;-0.150;2023-07-24T07:17:41;100285.55;;;23.15;48.18
49063;BME280;34876;51.464;-0.150;2023-07-24T07:20:09;100288.08;;;23.22;47.99
49063;BME280;34876;51.464;-0.150;2023-07-24T07:22:38;100286.09;;;23.23;47.93
49063;BME280;34876;51.464;-0.150;2023-07-24T07:25:09;100286.26;;;23.25;47.91
49063;BME280;34876;51.464;-0.150;2023-07-24T07:27:39;100288.00;;;23.19;48.11
49063;BME280;34876;51.464;-0.150;2023-07-24T07:30:09;100287.73;;;23.18;48.09
49063;BME280;34876;51.464;-0.150;2023-07-24T07:32:39;100289.69;;;23.22;47.98
49063;BME280;34876;51.464;-0.150;2023-07-24T07:35:15;100289.73;;;23.22;47.98
49063;BME280;34876;51.464;-0.150;2023-07-24T07:37:44;100287.44;;;23.17;48.14
49063;BME280;34876;51.464;-0.150;2023-07-24T07:40:14;100287.86;;;23.20;48.03
49063;BME280;34876;51.464;-0.150;2023-07-24T07:42:43;100287.20;;;23.23;47.98
49063;BME280;34876;51.464;-0.150;2023-07-24T07:45:12;100289.29;;;23.23;47.96
49063;BME280;34876;51.464;-0.150;2023-07-24T07:47:42;100286.81;;;23.23;47.93
49063;BME280;34876;51.464;-0.150;2023-07-24T07:50:11;100287.28;;;23.25;47.86
49063;BME280;34876;51.464;-0.150;2023-07-24T07:52:40;100287.62;;;23.23;47.92
49063;BME280;34876;51.464;-0.150;2023-07-24T07:55:09;100289.34;;;23.24;47.88
49063;BME280;34876;51.464;-0.150;2023-07-24T07:57:38;100292.02;;;23.23;47.92
49063;BME280;34876;51.464;-0.150;2023-07-24T08:00:08;100292.69;;;23.23;47.94
49063;BME280;34876;51.464;-0.150;2023-07-24T08:02:37;100292.50;;;23.24;47.91
49063;BME280;34876;51.464;-0.150;2023-07-24T08:05:07;100286.26;;;23.22;47.96
49063;BME280;34876;51.464;-0.150;2023-07-24T08:07:40;100287.46;;;23.22;47.92
49063;BME280;34876;51.464;-0.150;2023-07-24T08:10:10;100289.16;;;23.26;47.84
49063;BME280;34876;51.464;-0.150;2023-07-24T08:12:39;100287.12;;;23.28;47.79
49063;BME280;34876;51.464;-0.150;2023-07-24T08:15:13;100288.59;;;23.28;47.78
49063;BME280;34876;51.464;-0.150;2023-07-24T08:17:42;100291.19;;;23.18;48.10
49063;BME280;34876;51.464;-0.150;2023-07-24T08:20:12;100289.60;;;23.18;48.10
49063;BME280;34876;51.464;-0.150;2023-07-24T08:22:41;100291.70;;;23.24;47.91
49063;BME280;34876;51.464;-0.150;2023-07-24T08:25:09;100288.96;;;23.25;47.89
49063;BME280;34876;51.464;-0.150;2023-07-24T08:27:38;100291.85;;;23.27;47.82
49063;BME280;34876;51.464;-0.150;2023-07-24T08:30:08;100292.81;;;23.14;48.15
49063;BME280;34876;51.464;-0.150;2023-07-24T08:32:42;100295.27;;;22.89;48.89
49063;BME280;34876;51.464;-0.150;2023-07-24T08:35:11;100302.74;;;22.86;48.96
49063;BME280;34876;51.464;-0.150;2023-07-24T08:37:48;100302.97;;;23.09;48.29
49063;BME280;34876;51.464;-0.150;2023-07-24T08:40:17;100306.35;;;23.01;48.50
49063;BME280;34876;51.464;-0.150;2023-07-24T08:42:49;100312.45;;;22.91;48.81
49063;BME280;34876;51.464;-0.150;2023-07-24T08:45:20;100315.79;;;22.69;50.20
49063;BME280;34876;51.464;-0.150;2023-07-24T08:47:51;100318.88;;;22.73;49.34
49063;BME280;34876;51.464;-0.150;2023-07-24T08:50:21;100321.59;;;22.57;49.76
49063;BME280;34876;51.464;-0.150;2023-07-24T08:52:51;100318.88;;;22.95;48.70
49063;BME280;34876;51.464;-0.150;2023-07-24T08:55:21;100317.97;;;23.03;48.47
49063;BME280;34876;51.464;-0.150;2023-07-24T08:57:52;100322.98;;;22.79;49.13
49063;BME280;34876;51.464;-0.150;2023-07-24T09:00:21;100330.16;;;22.88;49.51
49063;BME280;34876;51.464;-0.150;2023-07-24T09:02:51;100335.78;;;22.59;49.72
49063;BME280;34876;51.464;-0.150;2023-07-24T09:05:21;100334.91;;;22.81;49.07
49063;BME280;34876;51.464;-0.150;2023-07-24T09:07:50;100335.43;;;22.90;48.82
49063;BME280;34876;51.464;-0.150;2023-07-24T09:10:24;100340.28;;;22.99;48.58
49063;BME280;34876;51.464;-0.150;2023-07-24T09:12:54;100344.00;;;23.00;48.52
49063;BME280;34876;51.464;-0.150;2023-07-24T09:15:23;100343.22;;;22.59;49.89
49063;BME280;34876;51.464;-0.150;2023-07-24T09:17:54;100344.71;;;22.89;48.99
49063;BME280;34876;51.464;-0.150;2023-07-24T09:20:22;100345.71;;;22.78;49.08
49063;BME280;34876;51.464;-0.150;2023-07-24T09:22:52;100347.06;;;22.98;48.87
49063;BME280;34876;51.464;-0.150;2023-07-24T09:25:30;100348.85;;;22.96;48.61
49063;BME280;34876;51.464;-0.150;2023-07-24T09:28:00;100351.49;;;22.81;48.99
49063;BME280;34876;51.464;-0.150;2023-07-24T09:30:29;100364.27;;;22.07;50.63
49063;BME280;34876;51.464;-0.150;2023-07-24T09:32:58;100361.13;;;22.75;49.17
49063;BME280;34876;51.464;-0.150;2023-07-24T09:35:29;100363.38;;;22.66;49.42
49063;BME280;34876;51.464;-0.150;2023-07-24T09:38:02;100364.74;;;22.74;49.16
49063;BME280;34876;51.464;-0.150;2023-07-24T09:40:43;100366.55;;;22.77;49.04
49063;BME280;34876;51.464;-0.150;2023-07-24T09:43:17;100376.46;;;22.63;49.39
49063;BME280;34876;51.464;-0.150;2023-07-24T09:45:48;100376.11;;;22.47;49.82
49063;BME280;34876;51.464;-0.150;2023-07-24T09:48:25;100373.65;;;22.76;49.04
49063;BME280;34876;51.464;-0.150;2023-07-24T09:50:55;100383.33;;;22.65;49.32
49063;BME280;34876;51.464;-0.150;2023-07-24T09:53:32;100391.26;;;22.59;49.47
49063;BME280;34876;51.464;-0.150;2023-07-24T09:56:03;100394.58;;;22.60;49.45
49063;BME280;34876;51.464;-0.150;2023-07-24T09:58:34;100397.45;;;21.61;51.61
49063;BME280;34876;51.464;-0.150;2023-07-24T10:01:05;100402.19;;;22.19;50.48
49063;BME280;34876;51.464;-0.150;2023-07-24T10:03:37;100403.12;;;21.86;51.16
49063;BME280;34876;51.464;-0.150;2023-07-24T10:06:08;100407.14;;;21.39;51.41
49063;BME280;34876;51.464;-0.150;2023-07-24T10:08:40;100405.18;;;21.37;52.80
49063;BME280;34876;51.464;-0.150;2023-07-24T10:11:12;100405.89;;;21.70;51.25
49063;BME280;34876;51.464;-0.150;2023-07-24T10:13:42;100410.20;;;21.48;52.18
49063;BME280;34876;51.464;-0.150;2023-07-24T10:16:12;100411.40;;;22.02;50.85
49063;BME280;34876;51.464;-0.150;2023-07-24T10:18:44;100412.36;;;21.95;49.50
49063;BME280;34876;51.464;-0.150;2023-07-24T10:21:13;100416.78;;;22.12;50.44
49063;BME280;34876;51.464;-0.150;2023-07-24T10:23:44;100424.92;;;22.50;49.53
49063;BME280;34876;51.464;-0.150;2023-07-24T10:26:14;100429.65;;;21.85;50.15
49063;BME280;34876;51.464;-0.150;2023-07-24T10:28:47;100440.63;;;21.88;50.60
49063;BME280;34876;51.464;-0.150;2023-07-24T10:31:21;100437.51;;;21.86;51.00
49063;BME280;34876;51.464;-0.150;2023-07-24T10:33:51;100440.28;;;21.74;49.77
49063;BME280;34876;51.464;-0.150;2023-07-24T10:36:21;100443.64;;;22.12;48.83
49063;BME280;34876;51.464;-0.150;2023-07-24T10:38:53;100444.66;;;21.86;50.46
49063;BME280;34876;51.464;-0.150;2023-07-24T10:41:34;100448.01;;;22.07;50.41
49063;BME280;34876;51.464;-0.150;2023-07-24T10:44:04;100441.43;;;22.06;50.26
49063;BME280;34876;51.464;-0.150;2023-07-24T10:46:36;100450.25;;;22.20;49.72
49063;BME280;34876;51.464;-0.150;2023-07-24T10:49:11;100448.44;;;22.09;49.93
49063;BME280;34876;51.464;-0.150;2023-07-24T10:51:40;100452.68;;;22.24;48.51
49063;BME280;34876;51.464;-0.150;2023-07-24T10:54:09;100459.50;;;22.41;48.68
49063;BME280;34876;51.464;-0.150;2023-07-24T10:56:39;100464.84;;;22.53;48.96
49063;BME280;34876;51.464;-0.150;2023-07-24T10:59:08;100467.10;;;22.23;49.22
49063;BME280;34876;51.464;-0.150;2023-07-24T11:01:37;100471.51;;;22.54;49.09
49063;BME280;34876;51.464;-0.150;2023-07-24T11:04:09;100474.73;;;22.13;50.00
49063;BME280;34876;51.464;-0.150;2023-07-24T11:06:40;100481.42;;;22.14;50.08
49063;BME280;34876;51.464;-0.150;2023-07-24T11:09:09;100482.56;;;22.57;48.99
49063;BME280;34876;51.464;-0.150;2023-07-24T11:11:38;100488.70;;;22.49;48.67
49063;BME280;34876;51.464;-0.150;2023-07-24T11:14:13;100488.02;;;22.05;49.60
49063;BME280;34876;51.464;-0.150;2023-07-24T11:16:48;100494.58;;;21.88;50.23
49063;BME280;34876;51.464;-0.150;2023-07-24T11:19:22;100501.38;;;22.06;49.30
49063;BME280;34876;51.464;-0.150;2023-07-24T11:21:51;100502.59;;;22.47;49.17
49063;BME280;34876;51.464;-0.150;2023-07-24T11:24:21;100500.61;;;21.92;49.30
49063;BME280;34876;51.464;-0.150;2023-07-24T11:26:53;100502.48;;;21.66;50.75
49063;BME280;34876;51.464;-0.150;2023-07-24T11:29:23;100505.93;;;21.92;49.94
49063;BME280;34876;51.464;-0.150;2023-07-24T11:31:54;100506.43;;;22.20;49.80
49063;BME280;34876;51.464;-0.150;2023-07-24T11:34:24;100510.91;;;22.44;49.15
49063;BME280;34876;51.464;-0.150;2023-07-24T11:36:54;100517.27;;;22.28;49.45
49063;BME280;34876;51.464;-0.150;2023-07-24T11:39:24;100521.08;;;22.47;49.10
49063;BME280;34876;51.464;-0.150;2023-07-24T11:41:53;100527.05;;;22.45;49.06
49063;BME280;34876;51.464;-0.150;2023-07-24T11:44:25;100526.72;;;21.96;50.27
49063;BME280;34876;51.464;-0.150;2023-07-24T11:47:03;100524.22;;;22.04;48.78
49063;BME280;34876;51.464;-0.150;2023-07-24T11:49:33;100525.98;;;21.95;50.09
49063;BME280;34876;51.464;-0.150;2023-07-24T11:52:04;100526.42;;;22.07;49.83
49063;BME280;34876;51.464;-0.150;2023-07-24T11:54:34;100536.52;;;22.15;49.64
49063;BME280;34876;51.464;-0.150;2023-07-24T11:57:14;100536.75;;;22.41;49.13
49063;BME280;34876;51.464;-0.150;2023-07-24T11:59:43;100537.18;;;21.72;50.73
49063;BME280;34876;51.464;-0.150;2023-07-24T12:02:12;100537.55;;;21.84;49.11
49063;BME280;34876;51.464;-0.150;2023-07-24T12:04:42;100537.56;;;22.16;48.53
49063;BME280;34876;51.464;-0.150;2023-07-24T12:07:11;100534.98;;;22.11;49.67
49063;BME280;34876;51.464;-0.150;2023-07-24T12:09:41;100540.83;;;22.42;49.07
49063;BME280;34876;51.464;-0.150;2023-07-24T12:12:10;100543.84;;;22.41;48.75
49063;BME280;34876;51.464;-0.150;2023-07-24T12:14:40;100545.90;;;22.39;48.94
49063;BME280;34876;51.464;-0.150;2023-07-24T12:17:10;100550.98;;;22.08;48.14
49063;BME280;34876;51.464;-0.150;2023-07-24T12:19:38;100549.50;;;22.39;49.07
49063;BME280;34876;51.464;-0.150;2023-07-24T12:22:08;100549.47;;;22.42;47.58
49063;BME280;34876;51.464;-0.150;2023-07-24T12:24:39;100549.15;;;22.32;49.17
49063;BME280;34876;51.464;-0.150;2023-07-24T12:27:08;100548.36;;;22.20;49.32
49063;BME280;34876;51.464;-0.150;2023-07-24T12:29:37;100561.74;;;21.41;50.62
49063;BME280;34876;51.464;-0.150;2023-07-24T12:32:06;100561.48;;;21.92;50.00
49063;BME280;34876;51.464;-0.150;2023-07-24T12:34:35;100569.57;;;21.52;51.24
49063;BME280;34876;51.464;-0.150;2023-07-24T12:37:04;100575.27;;;21.98;49.52
49063;BME280;34876;51.464;-0.150;2023-07-24T12:39:34;100577.17;;;22.34;49.14
49063;BME280;34876;51.464;-0.150;2023-07-24T12:42:04;100578.03;;;22.42;48.14
49063;BME280;34876;51.464;-0.150;2023-07-24T12:44:33;100586.52;;;21.86;50.15
49063;BME280;34876;51.464;-0.150;2023-07-24T12:47:04;100577.31;;;22.41;48.85
49063;BME280;34876;51.464;-0.150;2023-07-24T12:49:33;100575.68;;;22.11;49.25
49063;BME280;34876;51.464;-0.150;2023-07-24T12:52:02;100579.87;;;21.75;49.04
49063;BME280;34876;51.464;-0.150;2023-07-24T12:54:32;100580.44;;;21.68;50.40